Point Mugu Nas (Naval Base Ventura Co) Information

FAA: NTD - ICAO: KNTD

Point Mugu Nas (Naval Base Ventura Co) (Airport) Location

State California
County Ventura
City Oxnard
Point Mugu Nas (Naval Base Ventura Co) (Airport) is 0 miles north of Oxnard, CA.
Latitude 34-07-09.3880N
Longitude 119-07-10.5060W
Elevation 13ft

Point Mugu Nas (Naval Base Ventura Co) METARs

METAR KNTD 190152Z 28003KT 8SM FEW010 SCT040 13/11 A3007 RMK AO2 SLP184 T01330106 VISNO N $
Altimeter 30.07"
Temperature 13.3°C (55.9°F)
Wind 280° at 3KT
Clouds few at 1,000ft scattered at 4,000ft
Visibility 8.0mi
Time observed: 2022-01-19T01:52:00Z

Point Mugu Nas (Naval Base Ventura Co) (Airport) Details

Status Operational
Activation N/A
Ownership Military - Navy
Usage Private
Chart LOS ANGELES
ATC on-site Yes
Beacon schedule sunset-sunrise
Beacon color split clear green

Point Mugu Nas (Naval Base Ventura Co) (Airport) Contacts

Owner US NAVY
Owner address OCEANOGRAPHIC OFC - CODE 3142, WASHINGTON, DC 20373
Owner phone N/A
Manager N/A
Manager address N/A, N/A
Manager phone N/A

Point Mugu Nas (Naval Base Ventura Co) Radio Frequencies

Point Mugu Nas (Naval Base Ventura Co) (Airport) Radio Frequencies

UNICOM N/A
Common traffic advisory frequency (CTAF) N/A